sensor_id;sensor_type;location;lat;lon;timestamp;P1;durP1;ratioP1;P2;durP2;ratioP2
62724;SDS011;49026;52.600;4.694;2023-10-08T00:00:45;26.65;;;7.20;;
62724;SDS011;49026;52.600;4.694;2023-10-08T00:03:14;28.85;;;6.85;;
62724;SDS011;49026;52.600;4.694;2023-10-08T00:05:42;28.08;;;7.95;;
62724;SDS011;49026;52.600;4.694;2023-10-08T00:08:08;22.38;;;7.68;;
62724;SDS011;49026;52.600;4.694;2023-10-08T00:10:38;23.48;;;6.72;;
62724;SDS011;49026;52.600;4.694;2023-10-08T00:13:10;26.98;;;7.22;;
62724;SDS011;49026;52.600;4.694;2023-10-08T00:15:37;21.40;;;6.78;;
62724;SDS011;49026;52.600;4.694;2023-10-08T00:18:14;14.95;;;5.68;;
62724;SDS011;49026;52.600;4.694;2023-10-08T00:20:40;20.90;;;6.13;;
62724;SDS011;49026;52.600;4.694;2023-10-08T00:23:19;19.50;;;5.63;;
62724;SDS011;49026;52.600;4.694;2023-10-08T00:25:50;27.02;;;5.70;;
62724;SDS011;49026;52.600;4.694;2023-10-08T00:28:16;26.17;;;6.53;;
62724;SDS011;49026;52.600;4.694;2023-10-08T00:30:43;20.90;;;6.05;;
62724;SDS011;49026;52.600;4.694;2023-10-08T00:33:09;21.90;;;6.45;;
62724;SDS011;49026;52.600;4.694;2023-10-08T00:35:37;12.25;;;5.00;;
62724;SDS011;49026;52.600;4.694;2023-10-08T00:38:07;18.10;;;5.53;;
62724;SDS011;49026;52.600;4.694;2023-10-08T00:40:39;19.38;;;5.50;;
62724;SDS011;49026;52.600;4.694;2023-10-08T00:43:28;14.77;;;5.88;;
62724;SDS011;49026;52.600;4.694;2023-10-08T00:46:03;15.07;;;5.38;;
62724;SDS011;49026;52.600;4.694;2023-10-08T00:48:49;15.82;;;5.60;;
62724;SDS011;49026;52.600;4.694;2023-10-08T00:51:18;20.23;;;5.70;;
62724;SDS011;49026;52.600;4.694;2023-10-08T00:54:05;20.15;;;6.10;;
62724;SDS011;49026;52.600;4.694;2023-10-08T00:56:34;16.00;;;5.97;;
62724;SDS011;49026;52.600;4.694;2023-10-08T00:59:19;19.85;;;6.20;;
62724;SDS011;49026;52.600;4.694;2023-10-08T01:01:49;25.33;;;6.38;;
62724;SDS011;49026;52.600;4.694;2023-10-08T01:04:29;18.83;;;6.82;;
62724;SDS011;49026;52.600;4.694;2023-10-08T01:06:59;32.13;;;7.28;;
62724;SDS011;49026;52.600;4.694;2023-10-08T01:09:29;28.42;;;6.72;;
62724;SDS011;49026;52.600;4.694;2023-10-08T01:12:10;27.58;;;7.50;;
62724;SDS011;49026;52.600;4.694;2023-10-08T01:14:46;26.83;;;6.68;;
62724;SDS011;49026;52.600;4.694;2023-10-08T01:17:13;25.67;;;7.28;;
62724;SDS011;49026;52.600;4.694;2023-10-08T01:19:44;25.05;;;7.22;;
62724;SDS011;49026;52.600;4.694;2023-10-08T01:22:25;33.08;;;7.53;;
62724;SDS011;49026;52.600;4.694;2023-10-08T01:24:53;30.90;;;8.02;;
62724;SDS011;49026;52.600;4.694;2023-10-08T01:27:19;22.17;;;7.20;;
62724;SDS011;49026;52.600;4.694;2023-10-08T01:29:47;25.33;;;7.55;;
62724;SDS011;49026;52.600;4.694;2023-10-08T01:32:17;24.52;;;7.30;;
62724;SDS011;49026;52.600;4.694;2023-10-08T01:34:44;26.88;;;8.15;;
62724;SDS011;49026;52.600;4.694;2023-10-08T01:37:13;25.45;;;7.55;;
62724;SDS011;49026;52.600;4.694;2023-10-08T01:39:44;28.15;;;7.07;;
62724;SDS011;49026;52.600;4.694;2023-10-08T01:42:10;34.22;;;7.97;;
62724;SDS011;49026;52.600;4.694;2023-10-08T01:44:44;21.42;;;5.45;;
62724;SDS011;49026;52.600;4.694;2023-10-08T01:47:19;29.10;;;4.57;;
62724;SDS011;49026;52.600;4.694;2023-10-08T01:49:44;15.30;;;3.95;;
62724;SDS011;49026;52.600;4.694;2023-10-08T01:52:11;17.33;;;4.30;;
62724;SDS011;49026;52.600;4.694;2023-10-08T01:54:46;22.83;;;4.43;;
62724;SDS011;49026;52.600;4.694;2023-10-08T01:57:18;14.48;;;3.08;;
62724;SDS011;49026;52.600;4.694;2023-10-08T01:59:43;24.08;;;3.67;;
62724;SDS011;49026;52.600;4.694;2023-10-08T02:02:09;16.73;;;4.63;;
62724;SDS011;49026;52.600;4.694;2023-10-08T02:04:37;14.25;;;3.03;;
62724;SDS011;49026;52.600;4.694;2023-10-08T02:07:03;18.52;;;3.13;;
62724;SDS011;49026;52.600;4.694;2023-10-08T02:09:31;20.33;;;3.33;;
62724;SDS011;49026;52.600;4.694;2023-10-08T02:11:58;18.58;;;3.20;;
62724;SDS011;49026;52.600;4.694;2023-10-08T02:14:23;14.82;;;3.80;;
62724;SDS011;49026;52.600;4.694;2023-10-08T02:16:55;15.13;;;2.55;;
62724;SDS011;49026;52.600;4.694;2023-10-08T02:19:26;11.38;;;2.60;;
62724;SDS011;49026;52.600;4.694;2023-10-08T02:21:52;10.98;;;2.65;;
62724;SDS011;49026;52.600;4.694;2023-10-08T02:24:19;10.63;;;3.85;;
62724;SDS011;49026;52.600;4.694;2023-10-08T02:26:46;15.73;;;2.92;;
62724;SDS011;49026;52.600;4.694;2023-10-08T02:29:14;5.65;;;2.08;;
62724;SDS011;49026;52.600;4.694;2023-10-08T02:31:40;7.65;;;2.78;;
62724;SDS011;49026;52.600;4.694;2023-10-08T02:34:06;9.27;;;1.85;;
62724;SDS011;49026;52.600;4.694;2023-10-08T02:36:35;7.13;;;1.50;;
62724;SDS011;49026;52.600;4.694;2023-10-08T02:39:05;5.70;;;1.75;;
62724;SDS011;49026;52.600;4.694;2023-10-08T02:41:38;3.38;;;1.02;;
62724;SDS011;49026;52.600;4.694;2023-10-08T02:44:10;6.15;;;1.45;;
62724;SDS011;49026;52.600;4.694;2023-10-08T02:46:42;6.28;;;1.25;;
62724;SDS011;49026;52.600;4.694;2023-10-08T02:49:17;5.55;;;1.48;;
62724;SDS011;49026;52.600;4.694;2023-10-08T02:51:48;3.47;;;1.60;;
62724;SDS011;49026;52.600;4.694;2023-10-08T02:54:18;4.57;;;1.77;;
62724;SDS011;49026;52.600;4.694;2023-10-08T02:56:47;3.22;;;1.52;;
62724;SDS011;49026;52.600;4.694;2023-10-08T02:59:20;2.60;;;1.35;;
62724;SDS011;49026;52.600;4.694;2023-10-08T03:01:47;7.20;;;1.50;;
62724;SDS011;49026;52.600;4.694;2023-10-08T03:04:15;4.10;;;1.33;;
62724;SDS011;49026;52.600;4.694;2023-10-08T03:06:46;5.43;;;1.30;;
62724;SDS011;49026;52.600;4.694;2023-10-08T03:09:16;7.97;;;1.80;;
62724;SDS011;49026;52.600;4.694;2023-10-08T03:11:46;2.63;;;1.20;;
62724;SDS011;49026;52.600;4.694;2023-10-08T03:14:16;4.85;;;1.48;;
62724;SDS011;49026;52.600;4.694;2023-10-08T03:16:51;4.15;;;1.45;;
62724;SDS011;49026;52.600;4.694;2023-10-08T03:19:32;3.55;;;1.58;;
62724;SDS011;49026;52.600;4.694;2023-10-08T03:22:00;3.70;;;0.95;;
62724;SDS011;49026;52.600;4.694;2023-10-08T03:24:29;1.52;;;1.00;;
62724;SDS011;49026;52.600;4.694;2023-10-08T03:27:02;3.88;;;1.38;;
62724;SDS011;49026;52.600;4.694;2023-10-08T03:29:33;3.05;;;1.30;;
62724;SDS011;49026;52.600;4.694;2023-10-08T03:32:06;3.42;;;0.90;;
62724;SDS011;49026;52.600;4.694;2023-10-08T03:34:31;3.40;;;0.98;;
62724;SDS011;49026;52.600;4.694;2023-10-08T03:36:59;1.95;;;1.00;;
62724;SDS011;49026;52.600;4.694;2023-10-08T03:39:30;2.65;;;0.70;;
62724;SDS011;49026;52.600;4.694;2023-10-08T03:42:19;2.72;;;0.75;;
62724;SDS011;49026;52.600;4.694;2023-10-08T03:44:45;1.30;;;0.90;;
62724;SDS011;49026;52.600;4.694;2023-10-08T03:47:15;1.50;;;0.88;;
62724;SDS011;49026;52.600;4.694;2023-10-08T03:49:46;1.15;;;0.85;;
62724;SDS011;49026;52.600;4.694;2023-10-08T03:52:11;1.38;;;0.80;;
62724;SDS011;49026;52.600;4.694;2023-10-08T03:54:38;3.30;;;1.00;;
62724;SDS011;49026;52.600;4.694;2023-10-08T03:57:07;6.85;;;1.30;;
62724;SDS011;49026;52.600;4.694;2023-10-08T03:59:42;3.88;;;1.00;;
62724;SDS011;49026;52.600;4.694;2023-10-08T04:02:08;0.98;;;0.68;;
62724;SDS011;49026;52.600;4.694;2023-10-08T04:05:04;3.22;;;0.80;;
62724;SDS011;49026;52.600;4.694;2023-10-08T04:07:43;0.55;;;0.40;;
62724;SDS011;49026;52.600;4.694;2023-10-08T04:10:23;2.30;;;0.60;;
62724;SDS011;49026;52.600;4.694;2023-10-08T04:13:03;0.82;;;0.43;;
62724;SDS011;49026;52.600;4.694;2023-10-08T04:15:36;1.52;;;0.63;;
62724;SDS011;49026;52.600;4.694;2023-10-08T04:18:07;3.63;;;0.60;;
62724;SDS011;49026;52.600;4.694;2023-10-08T04:20:33;1.25;;;0.88;;
62724;SDS011;49026;52.600;4.694;2023-10-08T04:23:16;1.58;;;0.63;;
62724;SDS011;49026;52.600;4.694;2023-10-08T04:25:48;2.33;;;1.05;;
62724;SDS011;49026;52.600;4.694;2023-10-08T04:28:19;2.58;;;0.90;;
62724;SDS011;49026;52.600;4.694;2023-10-08T04:30:45;2.20;;;0.98;;
62724;SDS011;49026;52.600;4.694;2023-10-08T04:33:13;3.35;;;1.10;;
62724;SDS011;49026;52.600;4.694;2023-10-08T04:35:40;2.17;;;0.90;;
62724;SDS011;49026;52.600;4.694;2023-10-08T04:38:13;1.83;;;0.68;;
62724;SDS011;49026;52.600;4.694;2023-10-08T04:40:42;0.90;;;0.60;;
62724;SDS011;49026;52.600;4.694;2023-10-08T04:43:13;2.25;;;0.57;;
62724;SDS011;49026;52.600;4.694;2023-10-08T04:45:47;0.98;;;0.57;;
62724;SDS011;49026;52.600;4.694;2023-10-08T04:48:14;1.30;;;0.65;;
62724;SDS011;49026;52.600;4.694;2023-10-08T04:50:45;1.38;;;0.65;;
62724;SDS011;49026;52.600;4.694;2023-10-08T04:53:10;3.85;;;0.65;;
62724;SDS011;49026;52.600;4.694;2023-10-08T04:55:36;0.30;;;0.30;;
62724;SDS011;49026;52.600;4.694;2023-10-08T04:58:06;0.50;;;0.50;;
62724;SDS011;49026;52.600;4.694;2023-10-08T05:00:44;2.47;;;0.55;;
62724;SDS011;49026;52.600;4.694;2023-10-08T05:03:19;1.13;;;0.45;;
62724;SDS011;49026;52.600;4.694;2023-10-08T05:05:50;1.10;;;0.40;;
62724;SDS011;49026;52.600;4.694;2023-10-08T05:08:36;0.95;;;0.45;;
62724;SDS011;49026;52.600;4.694;2023-10-08T05:11:23;2.38;;;0.57;;
62724;SDS011;49026;52.600;4.694;2023-10-08T05:14:11;0.65;;;0.50;;
62724;SDS011;49026;52.600;4.694;2023-10-08T05:16:52;0.82;;;0.30;;
62724;SDS011;49026;52.600;4.694;2023-10-08T05:19:40;0.93;;;0.40;;
62724;SDS011;49026;52.600;4.694;2023-10-08T05:22:16;1.10;;;0.50;;
62724;SDS011;49026;52.600;4.694;2023-10-08T05:24:45;1.35;;;0.45;;
62724;SDS011;49026;52.600;4.694;2023-10-08T05:27:51;0.20;;;0.20;;
62724;SDS011;49026;52.600;4.694;2023-10-08T05:30:22;1.75;;;0.57;;
62724;SDS011;49026;52.600;4.694;2023-10-08T05:33:03;1.35;;;0.50;;
62724;SDS011;49026;52.600;4.694;2023-10-08T05:35:43;0.88;;;0.30;;
62724;SDS011;49026;52.600;4.694;2023-10-08T05:38:09;0.43;;;0.40;;
62724;SDS011;49026;52.600;4.694;2023-10-08T05:40:39;2.08;;;0.65;;
62724;SDS011;49026;52.600;4.694;2023-10-08T05:43:40;1.77;;;0.40;;
62724;SDS011;49026;52.600;4.694;2023-10-08T05:46:09;1.25;;;0.55;;
62724;SDS011;49026;52.600;4.694;2023-10-08T05:48:50;1.65;;;0.45;;
62724;SDS011;49026;52.600;4.694;2023-10-08T05:51:28;0.20;;;0.20;;
62724;SDS011;49026;52.600;4.694;2023-10-08T05:54:21;0.85;;;0.40;;
62724;SDS011;49026;52.600;4.694;2023-10-08T06:07:54;3.72;;;0.85;;
62724;SDS011;49026;52.600;4.694;2023-10-08T06:10:20;4.38;;;0.60;;
62724;SDS011;49026;52.600;4.694;2023-10-08T06:12:57;0.47;;;0.30;;
62724;SDS011;49026;52.600;4.694;2023-10-08T06:15:34;3.00;;;0.73;;
62724;SDS011;49026;52.600;4.694;2023-10-08T06:18:14;1.90;;;0.45;;
62724;SDS011;49026;52.600;4.694;2023-10-08T06:23:11;2.92;;;0.77;;
62724;SDS011;49026;52.600;4.694;2023-10-08T06:25:43;3.53;;;0.57;;
62724;SDS011;49026;52.600;4.694;2023-10-08T06:28:16;1.48;;;0.55;;
62724;SDS011;49026;52.600;4.694;2023-10-08T06:30:49;2.47;;;0.70;;
62724;SDS011;49026;52.600;4.694;2023-10-08T06:33:18;1.13;;;0.43;;
62724;SDS011;49026;52.600;4.694;2023-10-08T06:35:45;1.40;;;0.50;;
62724;SDS011;49026;52.600;4.694;2023-10-08T06:38:32;6.18;;;0.85;;
62724;SDS011;49026;52.600;4.694;2023-10-08T06:41:01;1.70;;;0.52;;
62724;SDS011;49026;52.600;4.694;2023-10-08T06:43:35;4.43;;;0.70;;
62724;SDS011;49026;52.600;4.694;2023-10-08T06:46:01;4.13;;;0.68;;
62724;SDS011;49026;52.600;4.694;2023-10-08T06:48:28;5.43;;;0.88;;
62724;SDS011;49026;52.600;4.694;2023-10-08T06:50:55;3.60;;;0.70;;
62724;SDS011;49026;52.600;4.694;2023-10-08T06:53:32;3.90;;;0.80;;
62724;SDS011;49026;52.600;4.694;2023-10-08T06:55:58;2.85;;;0.50;;
62724;SDS011;49026;52.600;4.694;2023-10-08T06:58:29;1.88;;;0.50;;
62724;SDS011;49026;52.600;4.694;2023-10-08T07:00:59;3.38;;;0.40;;
62724;SDS011;49026;52.600;4.694;2023-10-08T07:03:29;10.55;;;1.33;;
62724;SDS011;49026;52.600;4.694;2023-10-08T07:05:56;2.90;;;1.25;;
62724;SDS011;49026;52.600;4.694;2023-10-08T07:08:31;5.10;;;1.00;;
62724;SDS011;49026;52.600;4.694;2023-10-08T07:10:58;6.50;;;0.57;;
62724;SDS011;49026;52.600;4.694;2023-10-08T07:13:36;2.80;;;0.60;;
62724;SDS011;49026;52.600;4.694;2023-10-08T07:16:02;2.58;;;0.85;;
62724;SDS011;49026;52.600;4.694;2023-10-08T07:18:29;4.80;;;0.80;;
62724;SDS011;49026;52.600;4.694;2023-10-08T07:20:59;1.75;;;0.30;;
62724;SDS011;49026;52.600;4.694;2023-10-08T07:23:29;7.47;;;0.73;;
62724;SDS011;49026;52.600;4.694;2023-10-08T07:25:59;3.15;;;0.70;;
62724;SDS011;49026;52.600;4.694;2023-10-08T07:28:37;1.63;;;0.60;;
62724;SDS011;49026;52.600;4.694;2023-10-08T07:31:16;2.80;;;0.55;;
62724;SDS011;49026;52.600;4.694;2023-10-08T07:33:42;2.60;;;0.57;;
62724;SDS011;49026;52.600;4.694;2023-10-08T07:36:10;4.63;;;0.70;;
62724;SDS011;49026;52.600;4.694;2023-10-08T07:38:43;3.85;;;0.70;;
62724;SDS011;49026;52.600;4.694;2023-10-08T07:41:12;16.10;;;2.40;;
62724;SDS011;49026;52.600;4.694;2023-10-08T07:43:39;4.30;;;0.90;;
62724;SDS011;49026;52.600;4.694;2023-10-08T07:46:07;3.70;;;0.65;;
62724;SDS011;49026;52.600;4.694;2023-10-08T07:48:33;6.70;;;1.08;;
62724;SDS011;49026;52.600;4.694;2023-10-08T07:51:00;6.65;;;1.13;;
62724;SDS011;49026;52.600;4.694;2023-10-08T07:53:28;6.72;;;1.30;;
62724;SDS011;49026;52.600;4.694;2023-10-08T07:56:03;5.50;;;0.95;;
62724;SDS011;49026;52.600;4.694;2023-10-08T07:58:31;4.17;;;0.80;;
62724;SDS011;49026;52.600;4.694;2023-10-08T08:00:58;4.45;;;0.95;;
62724;SDS011;49026;52.600;4.694;2023-10-08T08:03:32;9.65;;;1.40;;
62724;SDS011;49026;52.600;4.694;2023-10-08T08:06:06;6.35;;;1.77;;
62724;SDS011;49026;52.600;4.694;2023-10-08T08:08:33;8.48;;;0.93;;
62724;SDS011;49026;52.600;4.694;2023-10-08T08:11:01;10.50;;;1.55;;
62724;SDS011;49026;52.600;4.694;2023-10-08T08:13:37;8.27;;;1.25;;
62724;SDS011;49026;52.600;4.694;2023-10-08T08:16:04;5.10;;;1.13;;
62724;SDS011;49026;52.600;4.694;2023-10-08T08:18:45;4.40;;;0.80;;
62724;SDS011;49026;52.600;4.694;2023-10-08T08:21:11;3.17;;;0.82;;
62724;SDS011;49026;52.600;4.694;2023-10-08T08:23:43;3.65;;;0.95;;
62724;SDS011;49026;52.600;4.694;2023-10-08T08:26:29;10.55;;;0.93;;
62724;SDS011;49026;52.600;4.694;2023-10-08T08:28:57;3.80;;;0.82;;
62724;SDS011;49026;52.600;4.694;2023-10-08T08:31:26;5.35;;;0.80;;
62724;SDS011;49026;52.600;4.694;2023-10-08T08:33:56;5.85;;;0.90;;
62724;SDS011;49026;52.600;4.694;2023-10-08T08:36:24;2.85;;;0.60;;
62724;SDS011;49026;52.600;4.694;2023-10-08T08:38:51;5.13;;;0.82;;
62724;SDS011;49026;52.600;4.694;2023-10-08T08:41:17;5.65;;;1.58;;
62724;SDS011;49026;52.600;4.694;2023-10-08T08:43:49;4.57;;;1.20;;
62724;SDS011;49026;52.600;4.694;2023-10-08T08:48:55;8.18;;;1.05;;
62724;SDS011;49026;52.600;4.694;2023-10-08T08:51:24;5.60;;;1.27;;
62724;SDS011;49026;52.600;4.694;2023-10-08T08:53:52;3.80;;;0.70;;
62724;SDS011;49026;52.600;4.694;2023-10-08T08:56:17;6.30;;;0.93;;
62724;SDS011;49026;52.600;4.694;2023-10-08T08:58:45;1.67;;;0.70;;
62724;SDS011;49026;52.600;4.694;2023-10-08T09:01:11;5.97;;;0.70;;
62724;SDS011;49026;52.600;4.694;2023-10-08T09:03:39;4.95;;;0.85;;
62724;SDS011;49026;52.600;4.694;2023-10-08T09:06:04;4.10;;;0.82;;
62724;SDS011;49026;52.600;4.694;2023-10-08T09:08:33;3.13;;;1.05;;
62724;SDS011;49026;52.600;4.694;2023-10-08T09:11:00;3.60;;;0.90;;
62724;SDS011;49026;52.600;4.694;2023-10-08T09:13:33;2.95;;;0.80;;
62724;SDS011;49026;52.600;4.694;2023-10-08T09:16:13;7.45;;;1.10;;
62724;SDS011;49026;52.600;4.694;2023-10-08T09:18:43;6.32;;;1.25;;
62724;SDS011;49026;52.600;4.694;2023-10-08T09:21:11;6.65;;;1.35;;
62724;SDS011;49026;52.600;4.694;2023-10-08T09:23:43;3.50;;;0.75;;
62724;SDS011;49026;52.600;4.694;2023-10-08T09:26:09;3.88;;;1.10;;
62724;SDS011;49026;52.600;4.694;2023-10-08T09:28:39;4.10;;;1.08;;
62724;SDS011;49026;52.600;4.694;2023-10-08T09:31:06;3.42;;;0.75;;
62724;SDS011;49026;52.600;4.694;2023-10-08T09:33:36;4.43;;;0.95;;
62724;SDS011;49026;52.600;4.694;2023-10-08T09:36:02;6.95;;;0.98;;
62724;SDS011;49026;52.600;4.694;2023-10-08T09:38:27;5.90;;;1.10;;
62724;SDS011;49026;52.600;4.694;2023-10-08T09:40:55;4.40;;;1.08;;
62724;SDS011;49026;52.600;4.694;2023-10-08T09:43:20;8.75;;;1.20;;
62724;SDS011;49026;52.600;4.694;2023-10-08T09:45:49;9.85;;;1.00;;
62724;SDS011;49026;52.600;4.694;2023-10-08T09:48:18;6.70;;;1.30;;
62724;SDS011;49026;52.600;4.694;2023-10-08T09:50:47;3.72;;;1.02;;
62724;SDS011;49026;52.600;4.694;2023-10-08T09:55:54;3.92;;;0.80;;
62724;SDS011;49026;52.600;4.694;2023-10-08T09:58:31;4.68;;;0.95;;
62724;SDS011;49026;52.600;4.694;2023-10-08T10:00:57;6.10;;;1.25;;
62724;SDS011;49026;52.600;4.694;2023-10-08T10:03:26;4.75;;;0.98;;
62724;SDS011;49026;52.600;4.694;2023-10-08T10:05:52;8.23;;;1.17;;
62724;SDS011;49026;52.600;4.694;2023-10-08T10:08:23;5.63;;;0.95;;
62724;SDS011;49026;52.600;4.694;2023-10-08T10:10:51;7.22;;;1.58;;
62724;SDS011;49026;52.600;4.694;2023-10-08T10:13:24;7.65;;;1.42;;
62724;SDS011;49026;52.600;4.694;2023-10-08T10:15:57;10.02;;;1.40;;
62724;SDS011;49026;52.600;4.694;2023-10-08T10:20:56;6.60;;;1.23;;
62724;SDS011;49026;52.600;4.694;2023-10-08T10:26:34;11.57;;;1.33;;
62724;SDS011;49026;52.600;4.694;2023-10-08T10:31:41;11.27;;;2.15;;
62724;SDS011;49026;52.600;4.694;2023-10-08T10:34:31;4.95;;;1.20;;
62724;SDS011;49026;52.600;4.694;2023-10-08T10:37:02;5.60;;;0.90;;
62724;SDS011;49026;52.600;4.694;2023-10-08T10:39:34;3.65;;;1.20;;
62724;SDS011;49026;52.600;4.694;2023-10-08T10:42:07;6.75;;;1.13;;
62724;SDS011;49026;52.600;4.694;2023-10-08T10:44:45;7.72;;;1.17;;
62724;SDS011;49026;52.600;4.694;2023-10-08T10:47:14;6.22;;;0.95;;
62724;SDS011;49026;52.600;4.694;2023-10-08T10:49:40;4.72;;;1.33;;
62724;SDS011;49026;52.600;4.694;2023-10-08T10:52:20;3.70;;;0.60;;
62724;SDS011;49026;52.600;4.694;2023-10-08T10:55:05;5.43;;;1.30;;
62724;SDS011;49026;52.600;4.694;2023-10-08T10:57:57;5.57;;;1.10;;
62724;SDS011;49026;52.600;4.694;2023-10-08T11:00:36;5.28;;;1.00;;
62724;SDS011;49026;52.600;4.694;2023-10-08T11:03:02;4.40;;;1.13;;
62724;SDS011;49026;52.600;4.694;2023-10-08T11:05:30;6.80;;;1.05;;
62724;SDS011;49026;52.600;4.694;2023-10-08T11:08:02;8.27;;;1.00;;
62724;SDS011;49026;52.600;4.694;2023-10-08T11:13:06;3.92;;;0.90;;
62724;SDS011;49026;52.600;4.694;2023-10-08T11:15:39;4.00;;;0.77;;
62724;SDS011;49026;52.600;4.694;2023-10-08T11:18:11;9.20;;;1.52;;
62724;SDS011;49026;52.600;4.694;2023-10-08T11:20:42;4.45;;;1.05;;
62724;SDS011;49026;52.600;4.694;2023-10-08T11:23:14;5.20;;;1.00;;
62724;SDS011;49026;52.600;4.694;2023-10-08T11:26:00;3.65;;;1.10;;
62724;SDS011;49026;52.600;4.694;2023-10-08T11:28:31;3.78;;;1.10;;
62724;SDS011;49026;52.600;4.694;2023-10-08T11:31:04;5.65;;;0.98;;
62724;SDS011;49026;52.600;4.694;2023-10-08T11:33:41;6.90;;;1.20;;
62724;SDS011;49026;52.600;4.694;2023-10-08T11:36:19;3.20;;;0.82;;
62724;SDS011;49026;52.600;4.694;2023-10-08T11:38:47;3.70;;;0.75;;
62724;SDS011;49026;52.600;4.694;2023-10-08T11:41:15;4.10;;;0.77;;
62724;SDS011;49026;52.600;4.694;2023-10-08T11:46:13;7.18;;;1.10;;
62724;SDS011;49026;52.600;4.694;2023-10-08T11:48:42;6.97;;;1.13;;
62724;SDS011;49026;52.600;4.694;2023-10-08T11:51:11;5.47;;;1.02;;
62724;SDS011;49026;52.600;4.694;2023-10-08T11:53:37;5.28;;;1.27;;
62724;SDS011;49026;52.600;4.694;2023-10-08T11:56:05;5.63;;;1.00;;
62724;SDS011;49026;52.600;4.694;2023-10-08T11:58:38;6.30;;;1.05;;
62724;SDS011;49026;52.600;4.694;2023-10-08T12:01:04;8.30;;;1.55;;
62724;SDS011;49026;52.600;4.694;2023-10-08T12:03:29;8.05;;;1.33;;
62724;SDS011;49026;52.600;4.694;2023-10-08T12:05:58;6.10;;;1.30;;
62724;SDS011;49026;52.600;4.694;2023-10-08T12:08:25;3.15;;;0.88;;
62724;SDS011;49026;52.600;4.694;2023-10-08T12:10:52;3.08;;;1.00;;
62724;SDS011;49026;52.600;4.694;2023-10-08T12:13:25;10.13;;;1.40;;
62724;SDS011;49026;52.600;4.694;2023-10-08T12:15:54;3.03;;;1.20;;
62724;SDS011;49026;52.600;4.694;2023-10-08T12:18:39;5.63;;;1.23;;
62724;SDS011;49026;52.600;4.694;2023-10-08T12:21:07;8.30;;;1.40;;
62724;SDS011;49026;52.600;4.694;2023-10-08T12:23:36;5.40;;;1.05;;
62724;SDS011;49026;52.600;4.694;2023-10-08T12:26:03;4.75;;;1.08;;
62724;SDS011;49026;52.600;4.694;2023-10-08T12:28:34;3.20;;;1.13;;
62724;SDS011;49026;52.600;4.694;2023-10-08T12:31:03;6.45;;;1.00;;
62724;SDS011;49026;52.600;4.694;2023-10-08T12:33:29;6.65;;;1.15;;
62724;SDS011;49026;52.600;4.694;2023-10-08T12:35:55;5.25;;;1.20;;
62724;SDS011;49026;52.600;4.694;2023-10-08T12:38:24;3.15;;;1.02;;
62724;SDS011;49026;52.600;4.694;2023-10-08T12:40:53;2.65;;;0.90;;
62724;SDS011;49026;52.600;4.694;2023-10-08T12:43:21;3.63;;;1.00;;
62724;SDS011;49026;52.600;4.694;2023-10-08T12:45:47;5.88;;;1.25;;
62724;SDS011;49026;52.600;4.694;2023-10-08T12:48:25;5.65;;;1.23;;
62724;SDS011;49026;52.600;4.694;2023-10-08T12:50:52;4.28;;;1.10;;
62724;SDS011;49026;52.600;4.694;2023-10-08T12:53:21;3.75;;;1.27;;
62724;SDS011;49026;52.600;4.694;2023-10-08T12:56:00;3.30;;;1.10;;
62724;SDS011;49026;52.600;4.694;2023-10-08T12:58:30;4.32;;;1.10;;
62724;SDS011;49026;52.600;4.694;2023-10-08T13:01:03;2.63;;;0.77;;
62724;SDS011;49026;52.600;4.694;2023-10-08T13:03:31;4.32;;;1.10;;
62724;SDS011;49026;52.600;4.694;2023-10-08T13:06:06;3.72;;;1.27;;
62724;SDS011;49026;52.600;4.694;2023-10-08T13:08:32;4.25;;;1.10;;
62724;SDS011;49026;52.600;4.694;2023-10-08T13:11:00;5.78;;;1.02;;
62724;SDS011;49026;52.600;4.694;2023-10-08T13:13:29;7.47;;;1.02;;
62724;SDS011;49026;52.600;4.694;2023-10-08T13:15:58;5.05;;;0.90;;
62724;SDS011;49026;52.600;4.694;2023-10-08T13:20:53;5.40;;;1.27;;
62724;SDS011;49026;52.600;4.694;2023-10-08T13:23:18;4.40;;;1.30;;
62724;SDS011;49026;52.600;4.694;2023-10-08T13:25:49;4.47;;;1.02;;
62724;SDS011;49026;52.600;4.694;2023-10-08T13:28:24;3.30;;;1.08;;
62724;SDS011;49026;52.600;4.694;2023-10-08T13:30:52;3.22;;;0.90;;
62724;SDS011;49026;52.600;4.694;2023-10-08T13:33:21;3.47;;;1.00;;
62724;SDS011;49026;52.600;4.694;2023-10-08T13:35:49;3.20;;;1.08;;
62724;SDS011;49026;52.600;4.694;2023-10-08T13:38:18;2.45;;;1.00;;
62724;SDS011;49026;52.600;4.694;2023-10-08T13:43:39;4.57;;;1.30;;
62724;SDS011;49026;52.600;4.694;2023-10-08T13:46:12;2.38;;;1.10;;
62724;SDS011;49026;52.600;4.694;2023-10-08T13:48:39;2.33;;;1.08;;
62724;SDS011;49026;52.600;4.694;2023-10-08T13:51:07;4.90;;;1.30;;
62724;SDS011;49026;52.600;4.694;2023-10-08T13:53:41;4.18;;;1.13;;
62724;SDS011;49026;52.600;4.694;2023-10-08T13:56:10;4.80;;;1.35;;
62724;SDS011;49026;52.600;4.694;2023-10-08T13:58:36;2.08;;;1.10;;
62724;SDS011;49026;52.600;4.694;2023-10-08T14:01:06;1.75;;;1.20;;
62724;SDS011;49026;52.600;4.694;2023-10-08T14:03:44;4.70;;;1.42;;
62724;SDS011;49026;52.600;4.694;2023-10-08T14:06:10;4.10;;;1.40;;
62724;SDS011;49026;52.600;4.694;2023-10-08T14:08:36;4.25;;;1.52;;
62724;SDS011;49026;52.600;4.694;2023-10-08T14:11:04;4.30;;;1.40;;
62724;SDS011;49026;52.600;4.694;2023-10-08T14:13:29;6.25;;;1.52;;
62724;SDS011;49026;52.600;4.694;2023-10-08T14:15:56;1.85;;;1.08;;
62724;SDS011;49026;52.600;4.694;2023-10-08T14:18:25;6.32;;;2.03;;
62724;SDS011;49026;52.600;4.694;2023-10-08T14:21:05;6.55;;;1.77;;
62724;SDS011;49026;52.600;4.694;2023-10-08T14:23:38;8.15;;;1.77;;
62724;SDS011;49026;52.600;4.694;2023-10-08T14:26:07;4.45;;;1.50;;
62724;SDS011;49026;52.600;4.694;2023-10-08T14:28:36;3.10;;;1.25;;
62724;SDS011;49026;52.600;4.694;2023-10-08T14:31:23;6.20;;;1.50;;
62724;SDS011;49026;52.600;4.694;2023-10-08T14:33:51;5.03;;;1.40;;
62724;SDS011;49026;52.600;4.694;2023-10-08T14:36:38;4.00;;;1.30;;
62724;SDS011;49026;52.600;4.694;2023-10-08T14:39:22;3.08;;;1.50;;
62724;SDS011;49026;52.600;4.694;2023-10-08T14:42:06;4.30;;;1.70;;
62724;SDS011;49026;52.600;4.694;2023-10-08T14:44:50;4.03;;;1.63;;
62724;SDS011;49026;52.600;4.694;2023-10-08T14:47:16;4.28;;;1.50;;
62724;SDS011;49026;52.600;4.694;2023-10-08T14:49:41;5.28;;;1.83;;
62724;SDS011;49026;52.600;4.694;2023-10-08T14:52:10;4.70;;;1.58;;
62724;SDS011;49026;52.600;4.694;2023-10-08T14:54:36;6.03;;;1.92;;
62724;SDS011;49026;52.600;4.694;2023-10-08T14:57:03;4.05;;;1.65;;
62724;SDS011;49026;52.600;4.694;2023-10-08T14:59:30;6.97;;;1.50;;
62724;SDS011;49026;52.600;4.694;2023-10-08T15:01:58;8.65;;;1.80;;
62724;SDS011;49026;52.600;4.694;2023-10-08T15:04:24;4.78;;;1.65;;
62724;SDS011;49026;52.600;4.694;2023-10-08T15:06:53;2.97;;;1.48;;
62724;SDS011;49026;52.600;4.694;2023-10-08T15:09:20;3.95;;;1.70;;
62724;SDS011;49026;52.600;4.694;2023-10-08T15:11:52;6.38;;;1.73;;
62724;SDS011;49026;52.600;4.694;2023-10-08T15:14:21;4.28;;;1.58;;
62724;SDS011;49026;52.600;4.694;2023-10-08T15:16:48;4.13;;;1.70;;
62724;SDS011;49026;52.600;4.694;2023-10-08T15:19:20;6.25;;;1.88;;
62724;SDS011;49026;52.600;4.694;2023-10-08T15:21:47;4.35;;;1.50;;
62724;SDS011;49026;52.600;4.694;2023-10-08T15:24:18;3.80;;;1.80;;
62724;SDS011;49026;52.600;4.694;2023-10-08T15:26:49;9.15;;;2.80;;
62724;SDS011;49026;52.600;4.694;2023-10-08T15:29:19;5.15;;;2.20;;
62724;SDS011;49026;52.600;4.694;2023-10-08T15:31:51;7.28;;;2.60;;
62724;SDS011;49026;52.600;4.694;2023-10-08T15:34:23;6.40;;;2.60;;
62724;SDS011;49026;52.600;4.694;2023-10-08T15:36:51;5.38;;;2.50;;
62724;SDS011;49026;52.600;4.694;2023-10-08T15:39:19;7.63;;;2.58;;
62724;SDS011;49026;52.600;4.694;2023-10-08T15:41:52;3.50;;;2.03;;
62724;SDS011;49026;52.600;4.694;2023-10-08T15:44:18;6.55;;;2.85;;
62724;SDS011;49026;52.600;4.694;2023-10-08T15:46:45;5.95;;;2.55;;